createdAt,value
2022-08-14T00:08:45.947Z,36.20
2022-08-14T00:23:38.897Z,36.10
2022-08-14T00:38:38.696Z,36.20
2022-08-14T00:53:44.011Z,35.70
2022-08-14T01:09:00.083Z,35.90
2022-08-14T01:23:47.459Z,36.10
2022-08-14T01:38:49.165Z,35.10
2022-08-14T01:53:40.516Z,35.00
2022-08-14T02:08:55.516Z,34.20
2022-08-14T02:38:44.420Z,34.40
2022-08-14T02:53:42.976Z,34.30
2022-08-14T03:08:45.936Z,34.20
2022-08-14T03:23:43.398Z,34.30
2022-08-14T03:39:11.353Z,34.30
2022-08-14T03:53:44.150Z,34.30
2022-08-14T04:08:45.260Z,34.50
2022-08-14T04:23:44.398Z,33.90
2022-08-14T04:38:47.520Z,34.00
2022-08-14T04:53:44.535Z,34.00
2022-08-14T05:09:01.101Z,33.80
2022-08-14T05:23:48.642Z,33.90
2022-08-14T05:38:47.905Z,34.50
2022-08-14T05:54:27.521Z,34.70
2022-08-14T06:08:47.742Z,34.80
2022-08-14T06:23:49.576Z,35.10
2022-08-14T06:38:51.814Z,34.60
2022-08-14T06:53:47.364Z,34.80
2022-08-14T07:08:51.621Z,35.30
2022-08-14T07:23:52.028Z,35.70
2022-08-14T07:38:52.936Z,35.70
2022-08-14T07:53:57.649Z,35.70
2022-08-14T08:09:03.795Z,36.30
2022-08-14T08:23:51.882Z,37.10
2022-08-14T08:39:23.186Z,37.00
2022-08-14T09:24:45.698Z,38.10
2022-08-14T09:38:51.916Z,38.20
2022-08-14T09:54:24.186Z,39.40
2022-08-14T10:08:57.236Z,39.10
2022-08-14T10:23:53.555Z,39.40
2022-08-14T10:38:54.812Z,39.50
2022-08-14T10:53:57.329Z,41.00
2022-08-14T11:08:54.778Z,41.00
2022-08-14T11:23:58.437Z,41.00
2022-08-14T11:38:54.770Z,41.10
2022-08-14T11:53:55.199Z,42.00
2022-08-14T12:09:00.550Z,42.40
2022-08-14T12:23:55.480Z,43.20
2022-08-14T12:38:55.680Z,43.10
2022-08-14T12:54:00.487Z,42.20
2022-08-14T13:09:01.223Z,42.10
2022-08-14T13:23:58.483Z,41.70
2022-08-14T13:38:56.876Z,41.70
2022-08-14T13:54:11.732Z,41.70
2022-08-14T14:23:59.380Z,41.70
2022-08-14T14:38:59.036Z,41.30
2022-08-14T14:54:01.461Z,41.30
2022-08-14T15:09:00.614Z,41.10
2022-08-14T15:23:59.712Z,40.90
2022-08-14T15:39:00.046Z,41.70
2022-08-14T15:54:11.614Z,42.80
2022-08-14T16:09:13.580Z,43.50
2022-08-14T16:24:01.801Z,43.80
2022-08-14T16:39:01.202Z,43.20
2022-08-14T16:54:01.598Z,42.40
2022-08-14T17:09:01.920Z,41.80
2022-08-14T17:25:04.369Z,41.70
2022-08-14T17:54:08.643Z,40.70
2022-08-14T18:09:03.674Z,40.10
2022-08-14T18:24:28.578Z,38.90
2022-08-14T18:39:05.044Z,38.10
2022-08-14T18:54:10.464Z,37.60
2022-08-14T19:09:06.706Z,37.70
2022-08-14T19:24:31.092Z,36.60
2022-08-14T19:39:05.568Z,36.40
2022-08-14T19:54:15.302Z,36.20
2022-08-14T20:12:03.159Z,36.60
2022-08-14T20:24:09.426Z,36.50
2022-08-14T20:39:07.060Z,35.50
2022-08-14T20:54:07.457Z,36.40
2022-08-14T21:09:09.157Z,36.30
2022-08-14T21:24:08.519Z,36.40
2022-08-14T21:39:08.570Z,36.20
2022-08-14T21:54:50.422Z,36.30
2022-08-14T22:09:09.343Z,36.30
2022-08-14T22:24:10.461Z,36.30
2022-08-14T22:39:11.679Z,36.30
2022-08-14T22:54:09.552Z,36.30
2022-08-14T23:09:42.906Z,36.30
2022-08-14T23:24:14.541Z,36.00
2022-08-14T23:39:12.436Z,36.00
2022-08-14T23:54:50.358Z,35.90
